sensor_id;sensor_type;location;lat;lon;timestamp;temperature;humidity
24152;DHT22;12311;50.866;4.332;2022-10-16T00:00:43;14.80;99.90
24152;DHT22;12311;50.866;4.332;2022-10-16T00:03:09;14.80;99.90
24152;DHT22;12311;50.866;4.332;2022-10-16T00:05:40;14.80;99.90
24152;DHT22;12311;50.866;4.332;2022-10-16T00:08:06;14.70;99.90
24152;DHT22;12311;50.866;4.332;2022-10-16T00:10:33;14.80;99.90
24152;DHT22;12311;50.866;4.332;2022-10-16T00:12:58;14.80;99.90
24152;DHT22;12311;50.866;4.332;2022-10-16T00:15:24;14.70;99.90
24152;DHT22;12311;50.866;4.332;2022-10-16T00:17:49;14.70;99.90
24152;DHT22;12311;50.866;4.332;2022-10-16T00:20:15;14.70;99.90
24152;DHT22;12311;50.866;4.332;2022-10-16T00:22:41;14.60;99.90
24152;DHT22;12311;50.866;4.332;2022-10-16T00:25:07;14.70;99.90
24152;DHT22;12311;50.866;4.332;2022-10-16T00:27:33;14.70;99.90
24152;DHT22;12311;50.866;4.332;2022-10-16T00:29:59;14.70;99.90
24152;DHT22;12311;50.866;4.332;2022-10-16T00:32:25;14.70;99.90
24152;DHT22;12311;50.866;4.332;2022-10-16T00:34:50;14.70;99.90
24152;DHT22;12311;50.866;4.332;2022-10-16T00:37:19;14.70;99.90
24152;DHT22;12311;50.866;4.332;2022-10-16T00:39:44;14.60;99.90
24152;DHT22;12311;50.866;4.332;2022-10-16T00:42:15;14.60;99.90
24152;DHT22;12311;50.866;4.332;2022-10-16T00:44:48;14.50;99.90
24152;DHT22;12311;50.866;4.332;2022-10-16T00:47:39;14.50;99.90
24152;DHT22;12311;50.866;4.332;2022-10-16T00:50:13;14.50;99.90
24152;DHT22;12311;50.866;4.332;2022-10-16T00:52:44;14.50;99.90
24152;DHT22;12311;50.866;4.332;2022-10-16T00:55:11;14.40;99.90
24152;DHT22;12311;50.866;4.332;2022-10-16T00:57:37;14.40;99.90
24152;DHT22;12311;50.866;4.332;2022-10-16T01:00:07;14.40;99.90
24152;DHT22;12311;50.866;4.332;2022-10-16T01:02:33;14.40;99.90
24152;DHT22;12311;50.866;4.332;2022-10-16T01:04:59;14.40;99.90
24152;DHT22;12311;50.866;4.332;2022-10-16T01:10:35;14.30;99.90
24152;DHT22;12311;50.866;4.332;2022-10-16T01:20:57;14.30;99.90
24152;DHT22;12311;50.866;4.332;2022-10-16T01:31:49;14.30;99.90
24152;DHT22;12311;50.866;4.332;2022-10-16T01:34:33;14.20;99.90
24152;DHT22;12311;50.866;4.332;2022-10-16T01:37:12;14.20;99.90
24152;DHT22;12311;50.866;4.332;2022-10-16T01:39:40;14.20;99.90
24152;DHT22;12311;50.866;4.332;2022-10-16T01:42:30;14.20;99.90
24152;DHT22;12311;50.866;4.332;2022-10-16T01:45:00;14.20;99.90
24152;DHT22;12311;50.866;4.332;2022-10-16T01:47:27;14.20;99.90
24152;DHT22;12311;50.866;4.332;2022-10-16T01:49:56;14.10;99.90
24152;DHT22;12311;50.866;4.332;2022-10-16T01:52:25;14.10;99.90
24152;DHT22;12311;50.866;4.332;2022-10-16T01:54:54;14.10;99.90
24152;DHT22;12311;50.866;4.332;2022-10-16T01:57:21;14.20;99.90
24152;DHT22;12311;50.866;4.332;2022-10-16T01:59:50;14.20;99.90
24152;DHT22;12311;50.866;4.332;2022-10-16T02:02:18;14.10;99.90
24152;DHT22;12311;50.866;4.332;2022-10-16T02:04:48;14.10;99.90
24152;DHT22;12311;50.866;4.332;2022-10-16T02:07:15;14.10;99.90
24152;DHT22;12311;50.866;4.332;2022-10-16T02:09:41;14.10;99.90
24152;DHT22;12311;50.866;4.332;2022-10-16T02:12:25;14.10;99.90
24152;DHT22;12311;50.866;4.332;2022-10-16T02:14:52;14.10;99.90
24152;DHT22;12311;50.866;4.332;2022-10-16T02:17:19;14.10;99.90
24152;DHT22;12311;50.866;4.332;2022-10-16T02:19:47;14.10;99.90
24152;DHT22;12311;50.866;4.332;2022-10-16T02:22:22;14.10;99.90
24152;DHT22;12311;50.866;4.332;2022-10-16T02:25:12;14.10;99.90
24152;DHT22;12311;50.866;4.332;2022-10-16T02:32:48;14.10;99.90
24152;DHT22;12311;50.866;4.332;2022-10-16T02:35:19;14.10;99.90
24152;DHT22;12311;50.866;4.332;2022-10-16T02:37:46;14.00;99.90
24152;DHT22;12311;50.866;4.332;2022-10-16T02:40:13;14.00;99.90
24152;DHT22;12311;50.866;4.332;2022-10-16T02:42:40;14.00;99.90
24152;DHT22;12311;50.866;4.332;2022-10-16T02:45:07;14.00;99.90
24152;DHT22;12311;50.866;4.332;2022-10-16T02:47:33;14.00;99.90
24152;DHT22;12311;50.866;4.332;2022-10-16T02:49:59;14.00;99.90
24152;DHT22;12311;50.866;4.332;2022-10-16T02:52:25;14.00;99.90
24152;DHT22;12311;50.866;4.332;2022-10-16T02:54:51;14.00;99.90
24152;DHT22;12311;50.866;4.332;2022-10-16T02:57:17;14.00;99.90
24152;DHT22;12311;50.866;4.332;2022-10-16T02:59:43;14.00;99.90
24152;DHT22;12311;50.866;4.332;2022-10-16T03:02:09;14.00;99.90
24152;DHT22;12311;50.866;4.332;2022-10-16T03:04:34;14.00;99.90
24152;DHT22;12311;50.866;4.332;2022-10-16T03:07:00;14.00;99.90
24152;DHT22;12311;50.866;4.332;2022-10-16T03:09:26;14.00;99.90
24152;DHT22;12311;50.866;4.332;2022-10-16T03:11:51;14.00;99.90
24152;DHT22;12311;50.866;4.332;2022-10-16T03:14:17;14.10;99.90
24152;DHT22;12311;50.866;4.332;2022-10-16T03:16:43;14.10;99.90
24152;DHT22;12311;50.866;4.332;2022-10-16T03:19:09;14.10;99.90
24152;DHT22;12311;50.866;4.332;2022-10-16T03:21:34;14.10;99.90
24152;DHT22;12311;50.866;4.332;2022-10-16T03:24:00;14.10;99.90
24152;DHT22;12311;50.866;4.332;2022-10-16T03:26:25;14.00;99.90
24152;DHT22;12311;50.866;4.332;2022-10-16T03:28:51;14.10;99.90
24152;DHT22;12311;50.866;4.332;2022-10-16T03:31:17;14.10;99.90
24152;DHT22;12311;50.866;4.332;2022-10-16T03:33:42;14.10;99.90
24152;DHT22;12311;50.866;4.332;2022-10-16T03:36:08;14.10;99.90
24152;DHT22;12311;50.866;4.332;2022-10-16T03:38:34;14.00;99.90
24152;DHT22;12311;50.866;4.332;2022-10-16T03:40:59;14.10;99.90
24152;DHT22;12311;50.866;4.332;2022-10-16T03:43:25;14.10;99.90
24152;DHT22;12311;50.866;4.332;2022-10-16T03:45:51;14.10;99.90
24152;DHT22;12311;50.866;4.332;2022-10-16T03:48:17;14.10;99.90
24152;DHT22;12311;50.866;4.332;2022-10-16T03:50:43;14.10;99.90
24152;DHT22;12311;50.866;4.332;2022-10-16T03:53:09;14.00;99.90
24152;DHT22;12311;50.866;4.332;2022-10-16T03:55:35;14.10;99.90
24152;DHT22;12311;50.866;4.332;2022-10-16T03:58:01;14.10;99.90
24152;DHT22;12311;50.866;4.332;2022-10-16T04:00:27;14.10;99.90
24152;DHT22;12311;50.866;4.332;2022-10-16T04:02:52;14.20;99.90
24152;DHT22;12311;50.866;4.332;2022-10-16T04:05:18;14.10;99.90
24152;DHT22;12311;50.866;4.332;2022-10-16T04:07:44;14.20;99.90
24152;DHT22;12311;50.866;4.332;2022-10-16T04:10:09;14.20;99.90
24152;DHT22;12311;50.866;4.332;2022-10-16T04:12:35;14.10;99.90
24152;DHT22;12311;50.866;4.332;2022-10-16T04:15:04;14.20;99.90
24152;DHT22;12311;50.866;4.332;2022-10-16T04:17:29;14.20;99.90
24152;DHT22;12311;50.866;4.332;2022-10-16T04:20:01;14.30;99.90
24152;DHT22;12311;50.866;4.332;2022-10-16T04:22:26;14.20;99.90
24152;DHT22;12311;50.866;4.332;2022-10-16T04:24:52;14.10;99.90
24152;DHT22;12311;50.866;4.332;2022-10-16T04:27:18;14.00;99.90
24152;DHT22;12311;50.866;4.332;2022-10-16T04:29:43;14.00;99.90
24152;DHT22;12311;50.866;4.332;2022-10-16T04:32:09;14.10;99.90
24152;DHT22;12311;50.866;4.332;2022-10-16T04:34:35;14.10;99.90
24152;DHT22;12311;50.866;4.332;2022-10-16T04:37:00;14.10;99.90
24152;DHT22;12311;50.866;4.332;2022-10-16T04:39:26;14.10;99.90
24152;DHT22;12311;50.866;4.332;2022-10-16T04:41:52;14.10;99.90
24152;DHT22;12311;50.866;4.332;2022-10-16T04:44:17;14.10;99.90
24152;DHT22;12311;50.866;4.332;2022-10-16T04:46:43;14.10;99.90
24152;DHT22;12311;50.866;4.332;2022-10-16T04:49:09;14.10;99.90
24152;DHT22;12311;50.866;4.332;2022-10-16T04:51:35;14.00;99.90
24152;DHT22;12311;50.866;4.332;2022-10-16T04:54:01;14.00;99.90
24152;DHT22;12311;50.866;4.332;2022-10-16T04:56:27;14.00;99.90
24152;DHT22;12311;50.866;4.332;2022-10-16T04:58:53;13.90;99.90
24152;DHT22;12311;50.866;4.332;2022-10-16T05:01:18;13.90;99.90
24152;DHT22;12311;50.866;4.332;2022-10-16T05:03:44;13.90;99.90
24152;DHT22;12311;50.866;4.332;2022-10-16T05:06:10;13.90;99.90
24152;DHT22;12311;50.866;4.332;2022-10-16T05:08:36;13.90;99.90
24152;DHT22;12311;50.866;4.332;2022-10-16T05:11:02;13.90;99.90
24152;DHT22;12311;50.866;4.332;2022-10-16T05:13:27;13.90;99.90
24152;DHT22;12311;50.866;4.332;2022-10-16T05:15:53;13.90;99.90
24152;DHT22;12311;50.866;4.332;2022-10-16T05:18:19;13.80;99.90
24152;DHT22;12311;50.866;4.332;2022-10-16T05:20:44;13.80;99.90
24152;DHT22;12311;50.866;4.332;2022-10-16T05:23:13;13.80;99.90
24152;DHT22;12311;50.866;4.332;2022-10-16T05:25:39;13.80;99.90
24152;DHT22;12311;50.866;4.332;2022-10-16T05:28:08;13.80;99.90
24152;DHT22;12311;50.866;4.332;2022-10-16T05:30:34;13.80;99.90
24152;DHT22;12311;50.866;4.332;2022-10-16T05:32:59;13.80;99.90
24152;DHT22;12311;50.866;4.332;2022-10-16T05:35:25;13.80;99.90
24152;DHT22;12311;50.866;4.332;2022-10-16T05:37:51;13.80;99.90
24152;DHT22;12311;50.866;4.332;2022-10-16T05:40:17;13.80;99.90
24152;DHT22;12311;50.866;4.332;2022-10-16T05:42:43;13.80;99.90
24152;DHT22;12311;50.866;4.332;2022-10-16T05:45:10;13.80;99.90
24152;DHT22;12311;50.866;4.332;2022-10-16T05:47:37;13.90;99.90
24152;DHT22;12311;50.866;4.332;2022-10-16T05:50:03;13.80;99.90
24152;DHT22;12311;50.866;4.332;2022-10-16T05:52:29;13.80;99.90
24152;DHT22;12311;50.866;4.332;2022-10-16T05:54:55;13.70;99.90
24152;DHT22;12311;50.866;4.332;2022-10-16T05:57:20;13.70;99.90
24152;DHT22;12311;50.866;4.332;2022-10-16T05:59:46;13.70;99.90
24152;DHT22;12311;50.866;4.332;2022-10-16T06:02:13;13.80;99.90
24152;DHT22;12311;50.866;4.332;2022-10-16T06:04:39;13.70;99.90
24152;DHT22;12311;50.866;4.332;2022-10-16T06:07:05;13.70;99.90
24152;DHT22;12311;50.866;4.332;2022-10-16T06:09:30;13.80;99.90
24152;DHT22;12311;50.866;4.332;2022-10-16T06:11:56;13.80;99.90
24152;DHT22;12311;50.866;4.332;2022-10-16T06:14:22;13.80;99.90
24152;DHT22;12311;50.866;4.332;2022-10-16T06:16:47;13.80;99.90
24152;DHT22;12311;50.866;4.332;2022-10-16T06:19:13;13.80;99.90
24152;DHT22;12311;50.866;4.332;2022-10-16T06:21:39;13.90;99.90
24152;DHT22;12311;50.866;4.332;2022-10-16T06:24:04;14.00;99.90
24152;DHT22;12311;50.866;4.332;2022-10-16T06:26:30;14.00;99.90
24152;DHT22;12311;50.866;4.332;2022-10-16T06:28:59;14.00;99.90
24152;DHT22;12311;50.866;4.332;2022-10-16T06:31:25;14.00;99.90
24152;DHT22;12311;50.866;4.332;2022-10-16T06:33:54;14.00;99.90
24152;DHT22;12311;50.866;4.332;2022-10-16T06:36:20;14.10;99.90
24152;DHT22;12311;50.866;4.332;2022-10-16T06:38:46;14.00;99.90
24152;DHT22;12311;50.866;4.332;2022-10-16T06:41:13;14.00;99.90
24152;DHT22;12311;50.866;4.332;2022-10-16T06:43:42;14.00;99.90
24152;DHT22;12311;50.866;4.332;2022-10-16T06:46:11;14.00;99.90
24152;DHT22;12311;50.866;4.332;2022-10-16T06:48:37;14.00;99.90
24152;DHT22;12311;50.866;4.332;2022-10-16T06:51:14;14.10;99.90
24152;DHT22;12311;50.866;4.332;2022-10-16T06:53:45;14.00;99.90
24152;DHT22;12311;50.866;4.332;2022-10-16T06:56:14;14.10;99.90
24152;DHT22;12311;50.866;4.332;2022-10-16T06:58:40;14.10;99.90
24152;DHT22;12311;50.866;4.332;2022-10-16T07:01:07;14.10;99.90
24152;DHT22;12311;50.866;4.332;2022-10-16T07:03:33;14.10;99.90
24152;DHT22;12311;50.866;4.332;2022-10-16T07:06:02;14.10;99.90
24152;DHT22;12311;50.866;4.332;2022-10-16T07:08:35;14.20;99.90
24152;DHT22;12311;50.866;4.332;2022-10-16T07:11:05;14.20;99.90
24152;DHT22;12311;50.866;4.332;2022-10-16T07:13:36;14.20;99.90
24152;DHT22;12311;50.866;4.332;2022-10-16T07:16:13;14.20;99.90
24152;DHT22;12311;50.866;4.332;2022-10-16T07:18:39;14.20;99.90
24152;DHT22;12311;50.866;4.332;2022-10-16T07:21:06;14.20;99.90
24152;DHT22;12311;50.866;4.332;2022-10-16T07:23:32;14.30;99.90
24152;DHT22;12311;50.866;4.332;2022-10-16T07:25:58;14.20;99.90
24152;DHT22;12311;50.866;4.332;2022-10-16T07:28:24;14.30;99.90
24152;DHT22;12311;50.866;4.332;2022-10-16T07:30:50;14.40;99.90
24152;DHT22;12311;50.866;4.332;2022-10-16T07:33:16;14.40;99.90
24152;DHT22;12311;50.866;4.332;2022-10-16T07:35:51;14.40;99.90
24152;DHT22;12311;50.866;4.332;2022-10-16T07:38:18;14.50;99.90
24152;DHT22;12311;50.866;4.332;2022-10-16T07:40:44;14.60;99.90
24152;DHT22;12311;50.866;4.332;2022-10-16T07:43:10;14.60;99.90
24152;DHT22;12311;50.866;4.332;2022-10-16T07:45:36;14.70;99.90
24152;DHT22;12311;50.866;4.332;2022-10-16T07:48:01;14.80;99.90
24152;DHT22;12311;50.866;4.332;2022-10-16T07:50:27;14.90;99.90
24152;DHT22;12311;50.866;4.332;2022-10-16T07:52:53;14.90;99.90
24152;DHT22;12311;50.866;4.332;2022-10-16T07:55:18;14.90;99.90
24152;DHT22;12311;50.866;4.332;2022-10-16T07:57:44;14.90;99.90
24152;DHT22;12311;50.866;4.332;2022-10-16T08:00:10;14.90;99.90
24152;DHT22;12311;50.866;4.332;2022-10-16T08:02:40;14.90;99.90
24152;DHT22;12311;50.866;4.332;2022-10-16T08:05:06;15.00;99.90
24152;DHT22;12311;50.866;4.332;2022-10-16T08:07:32;15.00;99.90
24152;DHT22;12311;50.866;4.332;2022-10-16T08:09:58;15.00;99.90
24152;DHT22;12311;50.866;4.332;2022-10-16T08:12:26;15.10;99.90
24152;DHT22;12311;50.866;4.332;2022-10-16T08:14:51;15.00;99.90
24152;DHT22;12311;50.866;4.332;2022-10-16T08:17:17;15.10;99.90
24152;DHT22;12311;50.866;4.332;2022-10-16T08:19:47;15.10;99.90
24152;DHT22;12311;50.866;4.332;2022-10-16T08:22:13;15.20;99.90
24152;DHT22;12311;50.866;4.332;2022-10-16T08:24:40;15.20;99.90
24152;DHT22;12311;50.866;4.332;2022-10-16T08:27:06;15.30;99.90
24152;DHT22;12311;50.866;4.332;2022-10-16T08:29:32;15.30;99.90
24152;DHT22;12311;50.866;4.332;2022-10-16T08:31:57;15.40;99.90
24152;DHT22;12311;50.866;4.332;2022-10-16T08:34:23;15.50;99.90
24152;DHT22;12311;50.866;4.332;2022-10-16T08:36:49;15.50;99.90
24152;DHT22;12311;50.866;4.332;2022-10-16T08:39:15;15.60;99.90
24152;DHT22;12311;50.866;4.332;2022-10-16T08:50:12;16.00;99.90
24152;DHT22;12311;50.866;4.332;2022-10-16T08:52:43;15.90;99.90
24152;DHT22;12311;50.866;4.332;2022-10-16T08:55:30;15.90;99.90
24152;DHT22;12311;50.866;4.332;2022-10-16T08:57:58;16.00;99.90
24152;DHT22;12311;50.866;4.332;2022-10-16T09:00:24;16.10;99.90
24152;DHT22;12311;50.866;4.332;2022-10-16T09:03:16;16.20;99.90
24152;DHT22;12311;50.866;4.332;2022-10-16T09:05:57;16.10;99.90
24152;DHT22;12311;50.866;4.332;2022-10-16T09:08:35;16.20;99.90
24152;DHT22;12311;50.866;4.332;2022-10-16T09:13:55;16.30;99.90
24152;DHT22;12311;50.866;4.332;2022-10-16T09:16:30;16.50;99.90
24152;DHT22;12311;50.866;4.332;2022-10-16T09:19:13;16.50;99.90
24152;DHT22;12311;50.866;4.332;2022-10-16T09:21:43;16.60;99.90
24152;DHT22;12311;50.866;4.332;2022-10-16T09:24:25;16.80;99.90
24152;DHT22;12311;50.866;4.332;2022-10-16T09:26:51;17.00;99.90
24152;DHT22;12311;50.866;4.332;2022-10-16T09:29:19;17.00;99.90
24152;DHT22;12311;50.866;4.332;2022-10-16T09:31:45;17.20;99.90
24152;DHT22;12311;50.866;4.332;2022-10-16T09:34:30;17.30;99.90
24152;DHT22;12311;50.866;4.332;2022-10-16T09:36:59;17.40;99.90
24152;DHT22;12311;50.866;4.332;2022-10-16T09:39:24;17.50;99.90
24152;DHT22;12311;50.866;4.332;2022-10-16T09:41:51;17.60;99.90
24152;DHT22;12311;50.866;4.332;2022-10-16T09:44:29;17.80;99.90
24152;DHT22;12311;50.866;4.332;2022-10-16T09:47:12;17.90;99.90
24152;DHT22;12311;50.866;4.332;2022-10-16T09:49:42;18.20;99.90
24152;DHT22;12311;50.866;4.332;2022-10-16T09:52:15;18.40;99.90
24152;DHT22;12311;50.866;4.332;2022-10-16T09:54:56;18.30;99.90
24152;DHT22;12311;50.866;4.332;2022-10-16T09:57:23;18.50;99.90
24152;DHT22;12311;50.866;4.332;2022-10-16T09:59:50;18.50;99.90
24152;DHT22;12311;50.866;4.332;2022-10-16T10:02:19;18.60;99.90
24152;DHT22;12311;50.866;4.332;2022-10-16T10:04:50;18.60;99.90
24152;DHT22;12311;50.866;4.332;2022-10-16T10:07:24;18.50;99.90
24152;DHT22;12311;50.866;4.332;2022-10-16T10:09:51;18.20;99.90
24152;DHT22;12311;50.866;4.332;2022-10-16T10:12:23;18.30;99.90
24152;DHT22;12311;50.866;4.332;2022-10-16T10:14:56;18.40;99.90
24152;DHT22;12311;50.866;4.332;2022-10-16T10:17:27;18.40;99.90
24152;DHT22;12311;50.866;4.332;2022-10-16T10:20:01;18.50;99.90
24152;DHT22;12311;50.866;4.332;2022-10-16T10:31:02;19.50;99.90
24152;DHT22;12311;50.866;4.332;2022-10-16T10:36:26;19.80;99.90
24152;DHT22;12311;50.866;4.332;2022-10-16T10:44:10;20.10;99.90
24152;DHT22;12311;50.866;4.332;2022-10-16T11:01:12;20.20;99.90
24152;DHT22;12311;50.866;4.332;2022-10-16T11:06:50;20.00;99.90
24152;DHT22;12311;50.866;4.332;2022-10-16T11:09:41;20.10;99.90
24152;DHT22;12311;50.866;4.332;2022-10-16T11:12:25;20.20;99.90
24152;DHT22;12311;50.866;4.332;2022-10-16T11:15:29;20.30;99.90
24152;DHT22;12311;50.866;4.332;2022-10-16T11:18:23;20.40;99.90
24152;DHT22;12311;50.866;4.332;2022-10-16T11:21:17;20.40;99.90
24152;DHT22;12311;50.866;4.332;2022-10-16T11:24:20;20.90;99.90
24152;DHT22;12311;50.866;4.332;2022-10-16T11:26:46;21.50;99.90
24152;DHT22;12311;50.866;4.332;2022-10-16T11:29:32;21.60;99.90
24152;DHT22;12311;50.866;4.332;2022-10-16T11:32:01;21.30;99.90
24152;DHT22;12311;50.866;4.332;2022-10-16T11:34:43;20.90;99.90
24152;DHT22;12311;50.866;4.332;2022-10-16T11:37:35;20.70;99.90
24152;DHT22;12311;50.866;4.332;2022-10-16T11:40:23;20.80;99.90
24152;DHT22;12311;50.866;4.332;2022-10-16T11:42:57;20.70;99.90
24152;DHT22;12311;50.866;4.332;2022-10-16T11:45:39;20.70;99.90
24152;DHT22;12311;50.866;4.332;2022-10-16T11:48:18;20.80;99.90
24152;DHT22;12311;50.866;4.332;2022-10-16T11:50:59;20.90;99.90
24152;DHT22;12311;50.866;4.332;2022-10-16T11:56:16;20.30;99.90
24152;DHT22;12311;50.866;4.332;2022-10-16T11:59:28;20.20;99.90
24152;DHT22;12311;50.866;4.332;2022-10-16T12:04:51;20.30;99.90
24152;DHT22;12311;50.866;4.332;2022-10-16T12:07:31;20.60;99.90
24152;DHT22;12311;50.866;4.332;2022-10-16T12:10:23;20.90;99.90
24152;DHT22;12311;50.866;4.332;2022-10-16T12:12:50;21.10;99.90
24152;DHT22;12311;50.866;4.332;2022-10-16T12:15:42;21.50;99.90
24152;DHT22;12311;50.866;4.332;2022-10-16T12:18:23;21.40;99.90
24152;DHT22;12311;50.866;4.332;2022-10-16T12:20:56;21.00;99.90
24152;DHT22;12311;50.866;4.332;2022-10-16T12:23:29;20.90;99.90
24152;DHT22;12311;50.866;4.332;2022-10-16T12:25:57;20.30;99.90
24152;DHT22;12311;50.866;4.332;2022-10-16T12:28:31;20.20;99.90
24152;DHT22;12311;50.866;4.332;2022-10-16T12:31:01;20.70;99.90
24152;DHT22;12311;50.866;4.332;2022-10-16T12:33:30;20.90;99.90
24152;DHT22;12311;50.866;4.332;2022-10-16T12:35:58;20.80;99.90
24152;DHT22;12311;50.866;4.332;2022-10-16T12:41:11;20.50;99.90
24152;DHT22;12311;50.866;4.332;2022-10-16T12:43:46;20.40;99.90
24152;DHT22;12311;50.866;4.332;2022-10-16T12:48:41;20.20;99.90
24152;DHT22;12311;50.866;4.332;2022-10-16T12:51:24;19.90;99.90
24152;DHT22;12311;50.866;4.332;2022-10-16T12:54:10;20.20;99.90
24152;DHT22;12311;50.866;4.332;2022-10-16T12:59:43;20.40;99.90
24152;DHT22;12311;50.866;4.332;2022-10-16T13:08:11;20.50;99.90
24152;DHT22;12311;50.866;4.332;2022-10-16T13:11:05;20.50;99.90
24152;DHT22;12311;50.866;4.332;2022-10-16T13:13:51;20.50;99.90
24152;DHT22;12311;50.866;4.332;2022-10-16T13:27:44;20.40;99.90
24152;DHT22;12311;50.866;4.332;2022-10-16T13:30:16;20.50;99.90
24152;DHT22;12311;50.866;4.332;2022-10-16T13:32:48;20.70;99.90
24152;DHT22;12311;50.866;4.332;2022-10-16T13:35:34;20.80;99.90
24152;DHT22;12311;50.866;4.332;2022-10-16T13:38:16;21.10;99.90
24152;DHT22;12311;50.866;4.332;2022-10-16T13:40:50;21.10;99.90
24152;DHT22;12311;50.866;4.332;2022-10-16T13:43:43;21.10;99.90
24152;DHT22;12311;50.866;4.332;2022-10-16T13:48:37;20.80;99.90
24152;DHT22;12311;50.866;4.332;2022-10-16T13:51:04;20.50;99.90
24152;DHT22;12311;50.866;4.332;2022-10-16T13:53:32;20.70;99.90
24152;DHT22;12311;50.866;4.332;2022-10-16T13:55:58;20.80;99.90
24152;DHT22;12311;50.866;4.332;2022-10-16T13:58:25;20.60;99.90
24152;DHT22;12311;50.866;4.332;2022-10-16T14:01:02;20.60;99.90
24152;DHT22;12311;50.866;4.332;2022-10-16T14:03:31;20.30;99.90
24152;DHT22;12311;50.866;4.332;2022-10-16T14:06:03;20.40;99.90
24152;DHT22;12311;50.866;4.332;2022-10-16T14:08:30;20.30;99.90
24152;DHT22;12311;50.866;4.332;2022-10-16T14:10:58;20.40;99.90
24152;DHT22;12311;50.866;4.332;2022-10-16T14:13:43;20.30;99.90
24152;DHT22;12311;50.866;4.332;2022-10-16T14:16:11;20.20;99.90
24152;DHT22;12311;50.866;4.332;2022-10-16T14:19:03;19.90;99.90
24152;DHT22;12311;50.866;4.332;2022-10-16T14:21:31;20.00;99.90
24152;DHT22;12311;50.866;4.332;2022-10-16T14:23:58;20.10;99.90
24152;DHT22;12311;50.866;4.332;2022-10-16T14:26:26;20.40;99.90
24152;DHT22;12311;50.866;4.332;2022-10-16T14:29:14;20.40;99.90
24152;DHT22;12311;50.866;4.332;2022-10-16T14:31:40;20.40;99.90
24152;DHT22;12311;50.866;4.332;2022-10-16T14:34:27;20.40;99.90
24152;DHT22;12311;50.866;4.332;2022-10-16T14:36:54;20.30;99.90
24152;DHT22;12311;50.866;4.332;2022-10-16T14:39:22;20.40;99.90
24152;DHT22;12311;50.866;4.332;2022-10-16T14:41:50;20.40;99.90
24152;DHT22;12311;50.866;4.332;2022-10-16T14:44:20;20.20;99.90
24152;DHT22;12311;50.866;4.332;2022-10-16T14:46:48;20.20;99.90
24152;DHT22;12311;50.866;4.332;2022-10-16T14:49:17;20.20;99.90
24152;DHT22;12311;50.866;4.332;2022-10-16T14:51:44;20.30;99.90
24152;DHT22;12311;50.866;4.332;2022-10-16T14:54:12;20.30;99.90
24152;DHT22;12311;50.866;4.332;2022-10-16T14:56:56;20.40;99.90
24152;DHT22;12311;50.866;4.332;2022-10-16T14:59:38;20.50;99.90
24152;DHT22;12311;50.866;4.332;2022-10-16T15:04:51;20.50;99.90
24152;DHT22;12311;50.866;4.332;2022-10-16T15:07:17;20.60;99.90
24152;DHT22;12311;50.866;4.332;2022-10-16T15:09:43;20.60;99.90
24152;DHT22;12311;50.866;4.332;2022-10-16T15:12:08;20.70;99.90
24152;DHT22;12311;50.866;4.332;2022-10-16T15:14:34;20.70;99.90
24152;DHT22;12311;50.866;4.332;2022-10-16T15:17:00;20.50;99.90
24152;DHT22;12311;50.866;4.332;2022-10-16T15:19:25;20.50;99.90
24152;DHT22;12311;50.866;4.332;2022-10-16T15:21:51;20.40;99.90
24152;DHT22;12311;50.866;4.332;2022-10-16T15:24:17;20.20;99.90
24152;DHT22;12311;50.866;4.332;2022-10-16T15:26:43;20.30;99.90
24152;DHT22;12311;50.866;4.332;2022-10-16T15:29:11;20.30;99.90
24152;DHT22;12311;50.866;4.332;2022-10-16T15:31:37;20.20;99.90
24152;DHT22;12311;50.866;4.332;2022-10-16T15:34:03;20.30;99.90
24152;DHT22;12311;50.866;4.332;2022-10-16T15:36:34;20.30;99.90
24152;DHT22;12311;50.866;4.332;2022-10-16T15:39:11;20.30;99.90
24152;DHT22;12311;50.866;4.332;2022-10-16T15:41:37;20.30;99.90
24152;DHT22;12311;50.866;4.332;2022-10-16T15:44:03;20.30;99.90
24152;DHT22;12311;50.866;4.332;2022-10-16T15:46:29;20.20;99.90
24152;DHT22;12311;50.866;4.332;2022-10-16T15:48:58;20.00;99.90
24152;DHT22;12311;50.866;4.332;2022-10-16T15:51:25;20.00;99.90
24152;DHT22;12311;50.866;4.332;2022-10-16T15:53:53;19.90;99.90
24152;DHT22;12311;50.866;4.332;2022-10-16T15:56:19;20.00;99.90
24152;DHT22;12311;50.866;4.332;2022-10-16T15:58:45;20.00;99.90
24152;DHT22;12311;50.866;4.332;2022-10-16T16:01:11;19.80;99.90
24152;DHT22;12311;50.866;4.332;2022-10-16T16:03:38;19.80;99.90
24152;DHT22;12311;50.866;4.332;2022-10-16T16:06:08;19.80;99.90
24152;DHT22;12311;50.866;4.332;2022-10-16T16:08:34;19.70;99.90
24152;DHT22;12311;50.866;4.332;2022-10-16T16:11:09;19.80;99.90
24152;DHT22;12311;50.866;4.332;2022-10-16T16:13:35;19.80;99.90
24152;DHT22;12311;50.866;4.332;2022-10-16T16:16:06;19.80;99.90
24152;DHT22;12311;50.866;4.332;2022-10-16T16:18:33;19.70;99.90
24152;DHT22;12311;50.866;4.332;2022-10-16T16:20:58;19.60;99.90
24152;DHT22;12311;50.866;4.332;2022-10-16T16:23:24;19.50;99.90
24152;DHT22;12311;50.866;4.332;2022-10-16T16:26:14;19.50;99.90
24152;DHT22;12311;50.866;4.332;2022-10-16T16:28:41;19.60;99.90
24152;DHT22;12311;50.866;4.332;2022-10-16T16:31:08;19.60;99.90
24152;DHT22;12311;50.866;4.332;2022-10-16T16:33:34;19.60;99.90
24152;DHT22;12311;50.866;4.332;2022-10-16T16:36:01;19.50;99.90
24152;DHT22;12311;50.866;4.332;2022-10-16T16:38:27;19.50;99.90
24152;DHT22;12311;50.866;4.332;2022-10-16T16:40:54;19.40;99.90
24152;DHT22;12311;50.866;4.332;2022-10-16T16:43:25;19.40;99.90
24152;DHT22;12311;50.866;4.332;2022-10-16T16:45:52;19.40;99.90
24152;DHT22;12311;50.866;4.332;2022-10-16T16:48:18;19.40;99.90
24152;DHT22;12311;50.866;4.332;2022-10-16T16:50:44;19.30;99.90
24152;DHT22;12311;50.866;4.332;2022-10-16T16:53:10;19.30;99.90
24152;DHT22;12311;50.866;4.332;2022-10-16T16:55:35;19.30;99.90
24152;DHT22;12311;50.866;4.332;2022-10-16T16:58:01;19.30;99.90
24152;DHT22;12311;50.866;4.332;2022-10-16T17:00:28;19.30;99.90
24152;DHT22;12311;50.866;4.332;2022-10-16T17:02:54;19.30;99.90
24152;DHT22;12311;50.866;4.332;2022-10-16T17:05:19;19.30;99.90
24152;DHT22;12311;50.866;4.332;2022-10-16T17:07:45;19.20;99.90
24152;DHT22;12311;50.866;4.332;2022-10-16T17:10:10;18.90;99.90
24152;DHT22;12311;50.866;4.332;2022-10-16T17:12:36;18.60;99.90
24152;DHT22;12311;50.866;4.332;2022-10-16T17:15:03;18.40;99.90
24152;DHT22;12311;50.866;4.332;2022-10-16T17:17:28;18.00;99.90
24152;DHT22;12311;50.866;4.332;2022-10-16T17:19:57;17.70;99.90
24152;DHT22;12311;50.866;4.332;2022-10-16T17:22:22;17.60;99.90
24152;DHT22;12311;50.866;4.332;2022-10-16T17:24:49;17.50;99.90
24152;DHT22;12311;50.866;4.332;2022-10-16T17:27:17;17.30;99.90
24152;DHT22;12311;50.866;4.332;2022-10-16T17:29:42;17.10;99.90
24152;DHT22;12311;50.866;4.332;2022-10-16T17:32:08;17.10;99.90